Astrid Conroy — ZGAQ5 — position and weather

sailwx.info

Track history (hours):
 
Tides and Currents Weather Stations Pressure Air Temp Water Temp Dewpoint Dewpoint Depression Visibility Wind Speed Wind Dir Waves Ship Positions

Astrid Conroy

Last reported at 2014-Sep-30 19:21 UTC. Time now 2014-Sep-30 19:54 UTC.
Position N 43°35' E 007°08'.

Length 58 m; draft 3.5 m.

Type: Pleasure craft. MMSI: 319031500.

Date/timePositionNaut miles runAvg speedWind from/ knotsBaromVisibWave heightAir tempDewpointWater temp
2014-Sep-30 19:21N 43°35' E 007°08'0 0.0
2014-Sep-30 18:33N 43°35' E 007°08'0 0.0
2014-Sep-30 17:32N 43°35' E 007°08'0 0.0
2014-Sep-30 16:26N 43°35' E 007°08'0 0.0
2014-Sep-30 15:31N 43°35' E 007°08'0 0.0
2014-Sep-30 14:25N 43°35' E 007°08'0 0.0
2014-Sep-30 13:24N 43°35' E 007°08'0 0.0
2014-Sep-30 12:30N 43°35' E 007°08'0 0.0
2014-Sep-30 11:30N 43°35' E 007°08'0 0.0
2014-Sep-30 10:29N 43°35' E 007°08'0 0.0
2014-Sep-30 09:23N 43°35' E 007°08'0 0.0
2014-Sep-30 08:28N 43°35' E 007°08'0 0.0
2014-Sep-30 07:28N 43°35' E 007°08'0 0.0
2014-Sep-30 06:27N 43°35' E 007°08'0 0.0
2014-Sep-30 05:33N 43°35' E 007°08'0 0.0
2014-Sep-30 04:33N 43°35' E 007°08'0 0.0
2014-Sep-30 03:32N 43°35' E 007°08'0 0.0
2014-Sep-30 02:32N 43°35' E 007°08'0 0.0
2014-Sep-30 01:31N 43°35' E 007°08'0 0.0
2014-Sep-30 00:31N 43°35' E 007°08'0 0.0
2014-Sep-29 23:30N 43°35' E 007°08'0 0.0
2014-Sep-29 22:30N 43°35' E 007°08'0 0.0
2014-Sep-29 21:30N 43°35' E 007°08'0 0.0
2014-Sep-29 20:29N 43°35' E 007°08'0 0.0
2014-Sep-29 19:29N 43°35' E 007°08'0 0.0
2014-Sep-29 18:28N 43°35' E 007°08'0 0.0
2014-Sep-29 17:28N 43°35' E 007°08'0 0.0
2014-Sep-29 16:33N 43°35' E 007°08'0 0.0
2014-Sep-29 15:27N 43°35' E 007°08'0 0.0
2014-Sep-29 14:33N 43°35' E 007°08'0 0.0
2014-Sep-29 13:26N 43°35' E 007°08'0 0.0
2014-Sep-29 12:32N 43°35' E 007°08'0 0.0
2014-Sep-29 11:31N 43°35' E 007°08'0 0.0
2014-Sep-29 10:31N 43°35' E 007°08'0 0.0
2014-Sep-29 09:30N 43°35' E 007°08'0 0.0
2014-Sep-29 08:30N 43°35' E 007°08'0 0.0
2014-Sep-29 07:24N 43°35' E 007°08'0 0.0
2014-Sep-29 06:29N 43°35' E 007°08'0 0.0
2014-Sep-29 05:29N 43°35' E 007°08'0 0.0
2014-Sep-29 04:28N 43°35' E 007°08'0 0.0
2014-Sep-29 03:28N 43°35' E 007°08'0 0.0
2014-Sep-29 02:33N 43°35' E 007°08'0 0.0
2014-Sep-29 01:33N 43°35' E 007°08'0 0.0
2014-Sep-29 00:27N 43°35' E 007°08'0 0.0
2014-Sep-28 23:32N 43°35' E 007°08'0 0.0
2014-Sep-28 22:26N 43°35' E 007°08'0 0.0
2014-Sep-28 21:31N 43°35' E 007°08'0 0.0
2014-Sep-28 20:31N 43°35' E 007°08'0 0.0
2014-Sep-28 19:30N 43°35' E 007°08'0 0.0
2014-Sep-28 18:30N 43°35' E 007°08'3 3.0
2014-Sep-28 17:33N 43°38' E 007°10'1 1.3
2014-Sep-28 16:33N 43°39' E 007°10'9 8.6
2014-Sep-28 15:34N 43°42' E 007°21'1 0.3
2014-Sep-28 13:21N 43°42' E 007°20'0 0.0
2014-Sep-28 12:33N 43°42' E 007°20'0 0.0
2014-Sep-28 11:33N 43°42' E 007°20'0 0.0
2014-Sep-28 10:32N 43°42' E 007°20'0 0.0
2014-Sep-28 09:32N 43°42' E 007°20'0 0.0
2014-Sep-28 08:31N 43°42' E 007°20'2 1.8
2014-Sep-28 07:33N 43°43' E 007°22'3 0.2
2014-Sep-27 16:30N 43°44' E 007°26'11 7.8
2014-Sep-27 15:08N 43°46' E 007°41'1 0.9
2014-Sep-27 13:32N 43°47' E 007°42'13 1.6
2014-Sep-27 05:34N 43°43' E 007°25'1 0.8
2014-Sep-27 04:33N 43°43' E 007°24'3 0.2
2014-Sep-26 09:33N 43°40' E 007°21'9 8.3
2014-Sep-26 08:32N 43°39' E 007°10'0 0.0
2014-Sep-26 07:31N 43°39' E 007°10'0 0.2
2014-Sep-26 06:33N 43°39' E 007°10'4 3.5
2014-Sep-26 05:25N 43°35' E 007°08'0 0.0
2014-Sep-26 04:30N 43°35' E 007°08'0 0.0
2014-Sep-26 03:24N 43°35' E 007°08'0 0.0
2014-Sep-26 02:29N 43°35' E 007°08'0 0.0
2014-Sep-26 01:29N 43°35' E 007°08'0 0.0
2014-Sep-26 00:23N 43°35' E 007°08'0 0.0
2014-Sep-25 23:28N 43°35' E 007°08'0 0.0
2014-Sep-25 22:28N 43°35' E 007°08'0 0.0
2014-Sep-25 21:33N 43°35' E 007°08'0 0.0
2014-Sep-25 20:33N 43°35' E 007°08'0 0.0
2014-Sep-25 19:32N 43°35' E 007°08'0 0.0
2014-Sep-25 18:32N 43°35' E 007°08'0 0.0
2014-Sep-25 17:32N 43°35' E 007°08'0 0.0
2014-Sep-25 16:31N 43°35' E 007°08'0 0.0
2014-Sep-25 15:31N 43°35' E 007°08'0 0.0
2014-Sep-25 14:30N 43°35' E 007°08'0 0.0
2014-Sep-25 13:30N 43°35' E 007°08'0 0.0
2014-Sep-25 12:29N 43°35' E 007°08'0 0.0
2014-Sep-25 11:29N 43°35' E 007°08'0 0.0
2014-Sep-25 10:29N 43°35' E 007°08'0 0.0
2014-Sep-25 09:22N 43°35' E 007°08'0 0.0
2014-Sep-25 08:28N 43°35' E 007°08'0 0.0
2014-Sep-25 07:27N 43°35' E 007°08'0 0.0
2014-Sep-25 06:33N 43°35' E 007°08'0 0.0
2014-Sep-25 05:26N 43°35' E 007°08'0 0.0
2014-Sep-25 04:32N 43°35' E 007°08'0 0.0
2014-Sep-25 03:25N 43°35' E 007°08'0 0.0
2014-Sep-25 02:31N 43°35' E 007°08'0 0.0
2014-Sep-25 01:31N 43°35' E 007°08'0 0.0
2014-Sep-25 00:30N 43°35' E 007°08'0 0.0
2014-Sep-24 23:30N 43°35' E 007°08'0 0.0
2014-Sep-24 22:17N 43°35' E 007°08'0 0.0
2014-Sep-24 21:29N 43°35' E 007°08'0 0.0
2014-Sep-24 20:28N 43°35' E 007°08'0 0.0
2014-Sep-24 19:22N 43°35' E 007°08'0 0.0
2014-Sep-24 18:28N 43°35' E 007°08'0 0.0
2014-Sep-24 17:33N 43°35' E 007°08'0 0.0
2014-Sep-24 16:33N 43°35' E 007°08'0 0.0
2014-Sep-24 15:32N 43°35' E 007°08'0 0.0
2014-Sep-24 14:32N 43°35' E 007°08'0 0.0
2014-Sep-24 13:32N 43°35' E 007°08'0 0.0
2014-Sep-24 12:31N 43°35' E 007°08'0 0.0
2014-Sep-24 11:25N 43°35' E 007°08'0 0.0
2014-Sep-24 10:30N 43°35' E 007°08'0 0.0
2014-Sep-24 09:30N 43°35' E 007°08'0 0.0
2014-Sep-24 08:29N 43°35' E 007°08'0 0.0
2014-Sep-24 07:29N 43°35' E 007°08'0 0.0
2014-Sep-24 06:28N 43°35' E 007°08'0 0.0
2014-Sep-24 05:22N 43°35' E 007°08'0 0.0
2014-Sep-24 04:28N 43°35' E 007°08'0 0.0
2014-Sep-24 03:33N 43°35' E 007°08'0 0.0
2014-Sep-24 02:33N 43°35' E 007°08'0 0.0
2014-Sep-24 01:32N 43°35' E 007°08'0 0.0
2014-Sep-24 00:32N 43°35' E 007°08'0 0.0
2014-Sep-23 23:31N 43°35' E 007°08'0 0.0
2014-Sep-23 22:31N 43°35' E 007°08'0 0.0
2014-Sep-23 21:25N 43°35' E 007°08'0 0.0
2014-Sep-23 20:30N 43°35' E 007°08'0 0.0
2014-Sep-23 19:30N 43°35' E 007°08'0 0.0
2014-Sep-23 18:29N 43°35' E 007°08'0 0.0
2014-Sep-23 17:29N 43°35' E 007°08'0 0.0
2014-Sep-23 16:28N 43°35' E 007°08'0 0.0
2014-Sep-23 15:28N 43°35' E 007°08'0 0.0
2014-Sep-23 14:28N 43°35' E 007°08'0 0.0
2014-Sep-23 13:33N 43°35' E 007°08'0 0.0
2014-Sep-23 12:33N 43°35' E 007°08'0 0.0
2014-Sep-23 11:31N 43°35' E 007°08'0 0.0
2014-Sep-23 10:32N 43°35' E 007°08'0 0.0
2014-Sep-23 09:31N 43°35' E 007°08'0 0.0
2014-Sep-23 08:31N 43°35' E 007°08'0 0.0
2014-Sep-23 07:31N 43°35' E 007°08'0 0.0
2014-Sep-23 06:30N 43°35' E 007°08'0 0.0
2014-Sep-23 05:30N 43°35' E 007°08'0 0.0
2014-Sep-23 04:29N 43°35' E 007°08'0 0.0
2014-Sep-23 03:29N 43°35' E 007°08'0 0.0
2014-Sep-23 02:28N 43°35' E 007°08'0 0.0
2014-Sep-23 01:28N 43°35' E 007°08'0 0.0
2014-Sep-23 00:27N 43°35' E 007°08'0 0.0
2014-Sep-22 23:33N 43°35' E 007°08'0 0.0
2014-Sep-22 22:27N 43°35' E 007°08'0 0.0
2014-Sep-22 21:32N 43°35' E 007°08'0 0.0
2014-Sep-22 20:32N 43°35' E 007°08'0 0.0
2014-Sep-22 19:31N 43°35' E 007°08'0 0.0
2014-Sep-22 18:25N 43°35' E 007°08'0 0.0
2014-Sep-22 17:30N 43°35' E 007°08'0 0.0
2014-Sep-22 16:30N 43°35' E 007°08'0 0.0
2014-Sep-22 15:30N 43°35' E 007°08'0 0.0
2014-Sep-22 14:33N 43°35' E 007°08'1 0.7
2014-Sep-22 13:28N 43°36' E 007°08'0 0.2
2014-Sep-22 12:33N 43°36' E 007°08'1312.7
2014-Sep-22 11:31N 43°28' E 007°22'6 6.7
2014-Sep-22 10:34N 43°32' E 007°16'7 6.7
2014-Sep-22 09:33N 43°35' E 007°08'0 0.0
2014-Sep-22 08:33N 43°35' E 007°08'0 0.0
2014-Sep-22 07:32N 43°35' E 007°08'0 0.0
2014-Sep-22 06:32N 43°35' E 007°08'0 0.0
2014-Sep-22 05:32N 43°35' E 007°08'0 0.0
2014-Sep-22 04:31N 43°35' E 007°08'0 0.0
2014-Sep-22 03:31N 43°35' E 007°08'0 0.0
2014-Sep-22 02:30N 43°35' E 007°08'0 0.0
2014-Sep-22 01:30N 43°35' E 007°08'0 0.0
2014-Sep-22 00:17N 43°35' E 007°08'0 0.0
2014-Sep-21 23:29N 43°35' E 007°08'0 0.0
2014-Sep-21 22:16N 43°35' E 007°08'0 0.0
2014-Sep-21 21:28N 43°35' E 007°08'0 0.0
2014-Sep-21 20:28N 43°35' E 007°08'0 0.0
2014-Sep-21 19:33N 43°35' E 007°08'0 0.0
2014-Sep-21 18:33N 43°35' E 007°08'0 0.0
2014-Sep-21 17:32N 43°35' E 007°08'0 0.0
2014-Sep-21 16:26N 43°35' E 007°08'0 0.0
2014-Sep-21 15:25N 43°35' E 007°08'0 0.0
2014-Sep-21 14:31N 43°35' E 007°08'0 0.0
2014-Sep-21 13:31N 43°35' E 007°08'0 0.0
2014-Sep-21 12:30N 43°35' E 007°08'0 0.0
2014-Sep-21 11:30N 43°35' E 007°08'0 0.0
2014-Sep-21 10:29N 43°35' E 007°08'0 0.0
2014-Sep-21 09:29N 43°35' E 007°08'0 0.0
2014-Sep-21 08:28N 43°35' E 007°08'0 0.0
2014-Sep-21 07:22N 43°35' E 007°08'0 0.0
2014-Sep-21 06:22N 43°35' E 007°08'0 0.0
2014-Sep-21 05:33N 43°35' E 007°08'0 0.0
2014-Sep-21 04:33N 43°35' E 007°08'0 0.0
2014-Sep-21 03:32N 43°35' E 007°08'0 0.0
2014-Sep-21 02:32N 43°35' E 007°08'0 0.0
2014-Sep-21 01:19N 43°35' E 007°08'0 0.0
2014-Sep-21 00:31N 43°35' E 007°08'0 0.0
2014-Sep-20 23:31N 43°35' E 007°08'0 0.0
2014-Sep-20 22:30N 43°35' E 007°08'0 0.0
2014-Sep-20 21:24N 43°35' E 007°08'0 0.0
2014-Sep-20 20:29N 43°35' E 007°08'0 0.0
2014-Sep-20 19:29N 43°35' E 007°08'  
Track history (hours):
 
Tides and Currents Weather Stations Pressure Air Temp Water Temp Dewpoint Dewpoint Depression Visibility Wind Speed Wind Dir Waves Ship Positions

Astrid Conroy

Last reported at 2014-Sep-30 19:21 UTC. Time now 2014-Sep-30 19:54 UTC.
Position N 43°35' E 007°08'.

Length 58 m; draft 3.5 m.

Type: Pleasure craft. MMSI: 319031500.

Date/timePositionNaut miles runAvg speedWind from/ knotsBaromVisibWave heightAir tempDewpointWater temp
2014-Sep-30 19:21N 43°35' E 007°08'0 0.0
2014-Sep-30 18:33N 43°35' E 007°08'0 0.0
2014-Sep-30 17:32N 43°35' E 007°08'0 0.0
2014-Sep-30 16:26N 43°35' E 007°08'0 0.0
2014-Sep-30 15:31N 43°35' E 007°08'0 0.0
2014-Sep-30 14:25N 43°35' E 007°08'0 0.0
2014-Sep-30 13:24N 43°35' E 007°08'0 0.0
2014-Sep-30 12:30N 43°35' E 007°08'0 0.0
2014-Sep-30 11:30N 43°35' E 007°08'0 0.0
2014-Sep-30 10:29N 43°35' E 007°08'0 0.0
2014-Sep-30 09:23N 43°35' E 007°08'0 0.0
2014-Sep-30 08:28N 43°35' E 007°08'0 0.0
2014-Sep-30 07:28N 43°35' E 007°08'0 0.0
2014-Sep-30 06:27N 43°35' E 007°08'0 0.0
2014-Sep-30 05:33N 43°35' E 007°08'0 0.0
2014-Sep-30 04:33N 43°35' E 007°08'0 0.0
2014-Sep-30 03:32N 43°35' E 007°08'0 0.0
2014-Sep-30 02:32N 43°35' E 007°08'0 0.0
2014-Sep-30 01:31N 43°35' E 007°08'0 0.0
2014-Sep-30 00:31N 43°35' E 007°08'0 0.0
2014-Sep-29 23:30N 43°35' E 007°08'0 0.0
2014-Sep-29 22:30N 43°35' E 007°08'0 0.0
2014-Sep-29 21:30N 43°35' E 007°08'0 0.0
2014-Sep-29 20:29N 43°35' E 007°08'0 0.0
2014-Sep-29 19:29N 43°35' E 007°08'0 0.0
2014-Sep-29 18:28N 43°35' E 007°08'0 0.0
2014-Sep-29 17:28N 43°35' E 007°08'0 0.0
2014-Sep-29 16:33N 43°35' E 007°08'0 0.0
2014-Sep-29 15:27N 43°35' E 007°08'0 0.0
2014-Sep-29 14:33N 43°35' E 007°08'0 0.0
2014-Sep-29 13:26N 43°35' E 007°08'0 0.0
2014-Sep-29 12:32N 43°35' E 007°08'0 0.0
2014-Sep-29 11:31N 43°35' E 007°08'0 0.0
2014-Sep-29 10:31N 43°35' E 007°08'0 0.0
2014-Sep-29 09:30N 43°35' E 007°08'0 0.0
2014-Sep-29 08:30N 43°35' E 007°08'0 0.0
2014-Sep-29 07:24N 43°35' E 007°08'0 0.0
2014-Sep-29 06:29N 43°35' E 007°08'0 0.0
2014-Sep-29 05:29N 43°35' E 007°08'0 0.0
2014-Sep-29 04:28N 43°35' E 007°08'0 0.0
2014-Sep-29 03:28N 43°35' E 007°08'0 0.0
2014-Sep-29 02:33N 43°35' E 007°08'0 0.0
2014-Sep-29 01:33N 43°35' E 007°08'0 0.0
2014-Sep-29 00:27N 43°35' E 007°08'0 0.0
2014-Sep-28 23:32N 43°35' E 007°08'0 0.0
2014-Sep-28 22:26N 43°35' E 007°08'0 0.0
2014-Sep-28 21:31N 43°35' E 007°08'0 0.0
2014-Sep-28 20:31N 43°35' E 007°08'0 0.0
2014-Sep-28 19:30N 43°35' E 007°08'0 0.0
2014-Sep-28 18:30N 43°35' E 007°08'3 3.0
2014-Sep-28 17:33N 43°38' E 007°10'1 1.3
2014-Sep-28 16:33N 43°39' E 007°10'9 8.6
2014-Sep-28 15:34N 43°42' E 007°21'1 0.3
2014-Sep-28 13:21N 43°42' E 007°20'0 0.0
2014-Sep-28 12:33N 43°42' E 007°20'0 0.0
2014-Sep-28 11:33N 43°42' E 007°20'0 0.0
2014-Sep-28 10:32N 43°42' E 007°20'0 0.0
2014-Sep-28 09:32N 43°42' E 007°20'0 0.0
2014-Sep-28 08:31N 43°42' E 007°20'2 1.8
2014-Sep-28 07:33N 43°43' E 007°22'3 0.2
2014-Sep-27 16:30N 43°44' E 007°26'11 7.8
2014-Sep-27 15:08N 43°46' E 007°41'1 0.9
2014-Sep-27 13:32N 43°47' E 007°42'13 1.6
2014-Sep-27 05:34N 43°43' E 007°25'1 0.8
2014-Sep-27 04:33N 43°43' E 007°24'3 0.2
2014-Sep-26 09:33N 43°40' E 007°21'9 8.3
2014-Sep-26 08:32N 43°39' E 007°10'0 0.0
2014-Sep-26 07:31N 43°39' E 007°10'0 0.2
2014-Sep-26 06:33N 43°39' E 007°10'4 3.5
2014-Sep-26 05:25N 43°35' E 007°08'0 0.0
2014-Sep-26 04:30N 43°35' E 007°08'0 0.0
2014-Sep-26 03:24N 43°35' E 007°08'0 0.0
2014-Sep-26 02:29N 43°35' E 007°08'0 0.0
2014-Sep-26 01:29N 43°35' E 007°08'0 0.0
2014-Sep-26 00:23N 43°35' E 007°08'0 0.0
2014-Sep-25 23:28N 43°35' E 007°08'0 0.0
2014-Sep-25 22:28N 43°35' E 007°08'0 0.0
2014-Sep-25 21:33N 43°35' E 007°08'0 0.0
2014-Sep-25 20:33N 43°35' E 007°08'0 0.0
2014-Sep-25 19:32N 43°35' E 007°08'0 0.0
2014-Sep-25 18:32N 43°35' E 007°08'0 0.0
2014-Sep-25 17:32N 43°35' E 007°08'0 0.0
2014-Sep-25 16:31N 43°35' E 007°08'0 0.0
2014-Sep-25 15:31N 43°35' E 007°08'0 0.0
2014-Sep-25 14:30N 43°35' E 007°08'0 0.0
2014-Sep-25 13:30N 43°35' E 007°08'0 0.0
2014-Sep-25 12:29N 43°35' E 007°08'0 0.0
2014-Sep-25 11:29N 43°35' E 007°08'0 0.0
2014-Sep-25 10:29N 43°35' E 007°08'0 0.0
2014-Sep-25 09:22N 43°35' E 007°08'0 0.0
2014-Sep-25 08:28N 43°35' E 007°08'0 0.0
2014-Sep-25 07:27N 43°35' E 007°08'0 0.0
2014-Sep-25 06:33N 43°35' E 007°08'0 0.0
2014-Sep-25 05:26N 43°35' E 007°08'0 0.0
2014-Sep-25 04:32N 43°35' E 007°08'0 0.0
2014-Sep-25 03:25N 43°35' E 007°08'0 0.0
2014-Sep-25 02:31N 43°35' E 007°08'0 0.0
2014-Sep-25 01:31N 43°35' E 007°08'0 0.0
2014-Sep-25 00:30N 43°35' E 007°08'0 0.0
2014-Sep-24 23:30N 43°35' E 007°08'0 0.0
2014-Sep-24 22:17N 43°35' E 007°08'0 0.0
2014-Sep-24 21:29N 43°35' E 007°08'0 0.0
2014-Sep-24 20:28N 43°35' E 007°08'0 0.0
2014-Sep-24 19:22N 43°35' E 007°08'0 0.0
2014-Sep-24 18:28N 43°35' E 007°08'0 0.0
2014-Sep-24 17:33N 43°35' E 007°08'0 0.0
2014-Sep-24 16:33N 43°35' E 007°08'0 0.0
2014-Sep-24 15:32N 43°35' E 007°08'0 0.0
2014-Sep-24 14:32N 43°35' E 007°08'0 0.0
2014-Sep-24 13:32N 43°35' E 007°08'0 0.0
2014-Sep-24 12:31N 43°35' E 007°08'0 0.0
2014-Sep-24 11:25N 43°35' E 007°08'0 0.0
2014-Sep-24 10:30N 43°35' E 007°08'0 0.0
2014-Sep-24 09:30N 43°35' E 007°08'0 0.0
2014-Sep-24 08:29N 43°35' E 007°08'0 0.0
2014-Sep-24 07:29N 43°35' E 007°08'0 0.0
2014-Sep-24 06:28N 43°35' E 007°08'0 0.0
2014-Sep-24 05:22N 43°35' E 007°08'0 0.0
2014-Sep-24 04:28N 43°35' E 007°08'0 0.0
2014-Sep-24 03:33N 43°35' E 007°08'0 0.0
2014-Sep-24 02:33N 43°35' E 007°08'0 0.0
2014-Sep-24 01:32N 43°35' E 007°08'0 0.0
2014-Sep-24 00:32N 43°35' E 007°08'0 0.0
2014-Sep-23 23:31N 43°35' E 007°08'0 0.0
2014-Sep-23 22:31N 43°35' E 007°08'0 0.0
2014-Sep-23 21:25N 43°35' E 007°08'0 0.0
2014-Sep-23 20:30N 43°35' E 007°08'0 0.0
2014-Sep-23 19:30N 43°35' E 007°08'0 0.0
2014-Sep-23 18:29N 43°35' E 007°08'0 0.0
2014-Sep-23 17:29N 43°35' E 007°08'0 0.0
2014-Sep-23 16:28N 43°35' E 007°08'0 0.0
2014-Sep-23 15:28N 43°35' E 007°08'0 0.0
2014-Sep-23 14:28N 43°35' E 007°08'0 0.0
2014-Sep-23 13:33N 43°35' E 007°08'0 0.0
2014-Sep-23 12:33N 43°35' E 007°08'0 0.0
2014-Sep-23 11:31N 43°35' E 007°08'0 0.0
2014-Sep-23 10:32N 43°35' E 007°08'0 0.0
2014-Sep-23 09:31N 43°35' E 007°08'0 0.0
2014-Sep-23 08:31N 43°35' E 007°08'0 0.0
2014-Sep-23 07:31N 43°35' E 007°08'0 0.0
2014-Sep-23 06:30N 43°35' E 007°08'0 0.0
2014-Sep-23 05:30N 43°35' E 007°08'0 0.0
2014-Sep-23 04:29N 43°35' E 007°08'0 0.0
2014-Sep-23 03:29N 43°35' E 007°08'0 0.0
2014-Sep-23 02:28N 43°35' E 007°08'0 0.0
2014-Sep-23 01:28N 43°35' E 007°08'0 0.0
2014-Sep-23 00:27N 43°35' E 007°08'0 0.0
2014-Sep-22 23:33N 43°35' E 007°08'0 0.0
2014-Sep-22 22:27N 43°35' E 007°08'0 0.0
2014-Sep-22 21:32N 43°35' E 007°08'0 0.0
2014-Sep-22 20:32N 43°35' E 007°08'0 0.0
2014-Sep-22 19:31N 43°35' E 007°08'0 0.0
2014-Sep-22 18:25N 43°35' E 007°08'0 0.0
2014-Sep-22 17:30N 43°35' E 007°08'0 0.0
2014-Sep-22 16:30N 43°35' E 007°08'0 0.0
2014-Sep-22 15:30N 43°35' E 007°08'0 0.0
2014-Sep-22 14:33N 43°35' E 007°08'1 0.7
2014-Sep-22 13:28N 43°36' E 007°08'0 0.2
2014-Sep-22 12:33N 43°36' E 007°08'1312.7
2014-Sep-22 11:31N 43°28' E 007°22'6 6.7
2014-Sep-22 10:34N 43°32' E 007°16'7 6.7
2014-Sep-22 09:33N 43°35' E 007°08'0 0.0
2014-Sep-22 08:33N 43°35' E 007°08'0 0.0
2014-Sep-22 07:32N 43°35' E 007°08'0 0.0
2014-Sep-22 06:32N 43°35' E 007°08'0 0.0
2014-Sep-22 05:32N 43°35' E 007°08'0 0.0
2014-Sep-22 04:31N 43°35' E 007°08'0 0.0
2014-Sep-22 03:31N 43°35' E 007°08'0 0.0
2014-Sep-22 02:30N 43°35' E 007°08'0 0.0
2014-Sep-22 01:30N 43°35' E 007°08'0 0.0
2014-Sep-22 00:17N 43°35' E 007°08'0 0.0
2014-Sep-21 23:29N 43°35' E 007°08'0 0.0
2014-Sep-21 22:16N 43°35' E 007°08'0 0.0
2014-Sep-21 21:28N 43°35' E 007°08'0 0.0
2014-Sep-21 20:28N 43°35' E 007°08'0 0.0
2014-Sep-21 19:33N 43°35' E 007°08'0 0.0
2014-Sep-21 18:33N 43°35' E 007°08'0 0.0
2014-Sep-21 17:32N 43°35' E 007°08'0 0.0
2014-Sep-21 16:26N 43°35' E 007°08'0 0.0
2014-Sep-21 15:25N 43°35' E 007°08'0 0.0
2014-Sep-21 14:31N 43°35' E 007°08'0 0.0
2014-Sep-21 13:31N 43°35' E 007°08'0 0.0
2014-Sep-21 12:30N 43°35' E 007°08'0 0.0
2014-Sep-21 11:30N 43°35' E 007°08'0 0.0
2014-Sep-21 10:29N 43°35' E 007°08'0 0.0
2014-Sep-21 09:29N 43°35' E 007°08'0 0.0
2014-Sep-21 08:28N 43°35' E 007°08'0 0.0
2014-Sep-21 07:22N 43°35' E 007°08'0 0.0
2014-Sep-21 06:22N 43°35' E 007°08'0 0.0
2014-Sep-21 05:33N 43°35' E 007°08'0 0.0
2014-Sep-21 04:33N 43°35' E 007°08'0 0.0
2014-Sep-21 03:32N 43°35' E 007°08'0 0.0
2014-Sep-21 02:32N 43°35' E 007°08'0 0.0
2014-Sep-21 01:19N 43°35' E 007°08'0 0.0
2014-Sep-21 00:31N 43°35' E 007°08'0 0.0
2014-Sep-20 23:31N 43°35' E 007°08'0 0.0
2014-Sep-20 22:30N 43°35' E 007°08'0 0.0
2014-Sep-20 21:24N 43°35' E 007°08'0 0.0
2014-Sep-20 20:29N 43°35' E 007°08'0 0.0
2014-Sep-20 19:29N 43°35' E 007°08'  

Dump ship's entire track history